createdAt,value
2022-07-29T00:00:51.440Z,26.20
2022-07-29T00:03:20.018Z,26.20
2022-07-29T00:05:49.934Z,26.20
2022-07-29T00:08:18.043Z,26.20
2022-07-29T00:10:46.112Z,26.10
2022-07-29T00:13:14.748Z,26.20
2022-07-29T00:15:43.393Z,26.10
2022-07-29T00:18:11.923Z,26.10
2022-07-29T00:20:40.089Z,26.10
2022-07-29T00:23:09.943Z,26.00
2022-07-29T00:25:42.358Z,26.10
2022-07-29T00:28:10.449Z,26.00
2022-07-29T00:30:38.995Z,26.00
2022-07-29T00:33:09.175Z,26.00
2022-07-29T00:35:46.057Z,26.00
2022-07-29T00:38:17.008Z,26.00
2022-07-29T00:40:46.638Z,26.00
2022-07-29T00:43:16.456Z,26.00
2022-07-29T00:45:45.578Z,26.00
2022-07-29T00:48:13.631Z,25.90
2022-07-29T00:50:41.914Z,26.00
2022-07-29T00:53:11.049Z,26.00
2022-07-29T00:55:41.012Z,25.90
2022-07-29T00:58:09.100Z,25.90
2022-07-29T01:00:38.301Z,25.90
2022-07-29T01:03:06.374Z,25.90
2022-07-29T01:05:49.642Z,25.90
2022-07-29T01:08:20.536Z,25.90
2022-07-29T01:10:51.703Z,25.90
2022-07-29T01:13:21.253Z,25.90
2022-07-29T01:15:57.016Z,25.90
2022-07-29T01:18:32.841Z,25.90
2022-07-29T01:21:23.858Z,25.90
2022-07-29T01:28:03.945Z,25.90
2022-07-29T01:30:37.464Z,25.90
2022-07-29T01:33:12.058Z,25.80
2022-07-29T01:35:43.165Z,25.80
2022-07-29T01:38:16.081Z,25.70
2022-07-29T01:40:49.964Z,25.70
2022-07-29T01:43:22.763Z,25.70
2022-07-29T01:45:58.846Z,25.60
2022-07-29T01:48:34.518Z,25.70
2022-07-29T01:51:10.328Z,25.60
2022-07-29T01:53:45.979Z,25.60
2022-07-29T01:56:15.982Z,25.60
2022-07-29T01:58:46.907Z,25.60
2022-07-29T02:01:19.072Z,25.50
2022-07-29T02:03:48.633Z,25.60
2022-07-29T02:06:23.473Z,25.50
2022-07-29T02:08:54.261Z,25.50
2022-07-29T02:11:22.347Z,25.50
2022-07-29T02:13:53.043Z,25.50
2022-07-29T02:16:25.244Z,25.40
2022-07-29T02:18:55.786Z,25.40
2022-07-29T02:21:27.330Z,25.30
2022-07-29T02:23:57.503Z,25.30
2022-07-29T02:26:27.916Z,25.30
2022-07-29T02:28:59.878Z,25.20
2022-07-29T02:31:35.886Z,25.20
2022-07-29T02:34:05.959Z,25.20
2022-07-29T02:36:35.683Z,25.10
2022-07-29T02:39:05.750Z,25.10
2022-07-29T02:41:42.335Z,25.10
2022-07-29T02:44:14.340Z,25.00
2022-07-29T02:46:50.073Z,25.00
2022-07-29T02:49:25.813Z,25.00
2022-07-29T02:52:00.031Z,24.90
2022-07-29T02:54:33.554Z,24.90
2022-07-29T02:57:06.463Z,24.90
2022-07-29T02:59:38.544Z,24.80
2022-07-29T03:02:11.027Z,24.80
2022-07-29T03:04:42.398Z,24.80
2022-07-29T03:07:12.526Z,24.80
2022-07-29T03:09:43.222Z,24.70
2022-07-29T03:12:12.635Z,24.70
2022-07-29T03:14:41.800Z,24.70
2022-07-29T03:17:11.969Z,24.70
2022-07-29T03:19:41.332Z,24.60
2022-07-29T03:22:10.166Z,24.60
2022-07-29T03:24:39.997Z,24.50
2022-07-29T03:27:08.145Z,24.50
2022-07-29T03:29:36.796Z,24.50
2022-07-29T03:32:08.960Z,24.40
2022-07-29T03:34:39.631Z,24.40
2022-07-29T03:37:09.034Z,24.30
2022-07-29T03:39:42.734Z,24.20
2022-07-29T03:42:15.713Z,24.20
2022-07-29T03:44:46.189Z,24.20
2022-07-29T03:47:16.483Z,24.20
2022-07-29T03:49:49.855Z,24.10
2022-07-29T03:52:18.312Z,24.10
2022-07-29T03:54:47.170Z,24.10
2022-07-29T03:57:17.723Z,24.10
2022-07-29T03:59:47.822Z,24.00
2022-07-29T04:02:21.577Z,24.00
2022-07-29T04:04:52.732Z,24.00
2022-07-29T04:07:21.349Z,24.00
2022-07-29T04:09:49.468Z,24.00
2022-07-29T04:12:17.984Z,24.00
2022-07-29T04:14:46.036Z,24.00
2022-07-29T04:17:15.002Z,23.90
2022-07-29T04:19:43.557Z,23.90
2022-07-29T04:22:13.189Z,23.90
2022-07-29T04:24:44.350Z,23.80
2022-07-29T04:27:12.744Z,23.80
2022-07-29T04:29:56.530Z,23.70
2022-07-29T04:32:26.638Z,23.70
2022-07-29T04:34:54.767Z,23.70
2022-07-29T04:37:24.738Z,23.70
2022-07-29T04:39:52.789Z,23.60
2022-07-29T04:42:21.507Z,23.60
2022-07-29T04:44:55.944Z,23.60
2022-07-29T04:47:24.789Z,23.60
2022-07-29T04:49:52.944Z,23.60
2022-07-29T04:52:21.492Z,23.60
2022-07-29T04:54:51.715Z,23.60
2022-07-29T04:57:20.281Z,23.60
2022-07-29T04:59:48.824Z,23.60
2022-07-29T05:02:17.466Z,23.60
2022-07-29T05:04:46.868Z,23.70
2022-07-29T05:07:15.692Z,23.70
2022-07-29T05:09:43.782Z,23.70
2022-07-29T05:12:13.246Z,23.70
2022-07-29T05:14:41.771Z,23.70
2022-07-29T05:17:10.307Z,23.80
2022-07-29T05:19:39.428Z,23.80
2022-07-29T05:22:08.393Z,23.80
2022-07-29T05:24:36.919Z,23.80
2022-07-29T05:27:05.861Z,23.90
2022-07-29T05:29:42.688Z,23.90
2022-07-29T05:32:13.930Z,23.90
2022-07-29T05:34:51.185Z,24.00
2022-07-29T05:37:20.404Z,24.00
2022-07-29T05:39:56.141Z,24.10
2022-07-29T05:42:25.308Z,24.10
2022-07-29T05:44:55.345Z,24.10
2022-07-29T05:47:23.995Z,24.20
2022-07-29T05:49:52.993Z,24.20
2022-07-29T05:52:21.189Z,24.20
2022-07-29T05:54:49.763Z,24.30
2022-07-29T05:57:19.166Z,24.30
2022-07-29T05:59:47.557Z,24.30
2022-07-29T06:02:17.981Z,24.40
2022-07-29T06:04:46.118Z,24.50
2022-07-29T06:07:14.225Z,24.50
2022-07-29T06:09:42.739Z,24.50
2022-07-29T06:12:11.249Z,24.60
2022-07-29T06:14:40.057Z,24.60
2022-07-29T06:17:08.168Z,24.70
2022-07-29T06:19:38.729Z,24.70
2022-07-29T06:22:06.850Z,24.80
2022-07-29T06:24:36.312Z,24.80
2022-07-29T06:27:04.452Z,24.90
2022-07-29T06:29:32.967Z,24.90
2022-07-29T06:32:01.111Z,25.00
2022-07-29T06:34:29.253Z,25.00
2022-07-29T06:36:59.154Z,25.10
2022-07-29T06:39:27.760Z,25.10
2022-07-29T06:41:56.294Z,25.10
2022-07-29T06:44:24.426Z,25.20
2022-07-29T06:46:53.152Z,25.20
2022-07-29T06:49:21.368Z,25.30
2022-07-29T06:51:49.904Z,25.30
2022-07-29T06:54:19.416Z,25.30
2022-07-29T06:56:48.831Z,25.40
2022-07-29T06:59:16.928Z,25.40
2022-07-29T07:01:45.499Z,25.50
2022-07-29T07:04:15.320Z,25.50
2022-07-29T07:06:44.186Z,25.50
2022-07-29T07:09:12.369Z,25.50
2022-07-29T07:11:42.276Z,25.60
2022-07-29T07:14:10.795Z,25.60
2022-07-29T07:16:38.918Z,25.70
2022-07-29T07:19:07.502Z,25.70
2022-07-29T07:21:36.931Z,25.60
2022-07-29T07:24:05.834Z,25.70
2022-07-29T07:26:35.058Z,25.80
2022-07-29T07:29:04.945Z,25.80
2022-07-29T07:31:33.203Z,25.90
2022-07-29T07:34:01.780Z,25.90
2022-07-29T07:36:29.866Z,26.00
2022-07-29T07:38:58.518Z,26.00
2022-07-29T07:41:26.618Z,26.00
2022-07-29T07:44:01.078Z,26.10
2022-07-29T07:46:31.310Z,26.10
2022-07-29T07:48:59.479Z,26.10
2022-07-29T07:51:28.406Z,26.10
2022-07-29T07:53:56.545Z,26.10
2022-07-29T07:56:29.663Z,26.10
2022-07-29T07:59:01.450Z,26.20
2022-07-29T08:01:31.476Z,26.20
2022-07-29T08:04:25.006Z,26.20
2022-07-29T08:06:56.493Z,26.20
2022-07-29T08:09:31.183Z,26.30
2022-07-29T08:12:00.472Z,26.30
2022-07-29T08:14:28.564Z,26.30
2022-07-29T08:16:58.491Z,26.30
2022-07-29T08:19:26.735Z,26.40
2022-07-29T08:21:55.474Z,26.40
2022-07-29T08:24:41.935Z,26.40
2022-07-29T08:27:33.422Z,26.40
2022-07-29T08:29:59.103Z,26.50
2022-07-29T08:32:51.231Z,26.50
2022-07-29T08:35:17.948Z,26.50
2022-07-29T08:37:46.028Z,26.60
2022-07-29T08:40:15.570Z,26.60
2022-07-29T08:42:44.314Z,26.70
2022-07-29T08:45:13.489Z,26.70
2022-07-29T08:47:43.330Z,26.80
2022-07-29T08:50:12.658Z,26.80
2022-07-29T08:52:42.320Z,26.90
2022-07-29T08:55:12.372Z,26.90
2022-07-29T08:57:50.879Z,27.00
2022-07-29T09:00:25.198Z,27.00
2022-07-29T09:02:59.771Z,27.10
2022-07-29T09:05:29.453Z,27.10
2022-07-29T09:07:58.410Z,27.20
2022-07-29T09:10:26.643Z,27.20
2022-07-29T09:12:56.684Z,27.20
2022-07-29T09:15:25.016Z,27.30
2022-07-29T09:17:54.916Z,27.30
2022-07-29T09:20:24.113Z,27.30
2022-07-29T09:22:54.591Z,27.30
2022-07-29T09:25:35.824Z,27.40
2022-07-29T09:28:12.140Z,27.40
2022-07-29T09:30:53.530Z,27.40
2022-07-29T09:33:23.873Z,27.50
2022-07-29T09:36:02.609Z,27.50
2022-07-29T09:38:32.328Z,27.50
2022-07-29T09:41:06.125Z,27.60
2022-07-29T09:43:35.473Z,27.60
2022-07-29T09:46:13.605Z,27.60
2022-07-29T09:48:43.591Z,27.70
2022-07-29T09:51:24.151Z,27.70
2022-07-29T09:53:57.190Z,27.70
2022-07-29T09:56:40.991Z,27.70
2022-07-29T09:59:10.006Z,27.80
2022-07-29T10:01:38.598Z,27.80
2022-07-29T10:04:08.202Z,27.80
2022-07-29T10:06:36.807Z,27.80
2022-07-29T10:09:11.194Z,27.80
2022-07-29T10:11:49.087Z,27.90
2022-07-29T10:14:18.255Z,27.90
2022-07-29T10:16:46.908Z,27.90
2022-07-29T10:19:17.455Z,28.00
2022-07-29T10:21:46.109Z,28.00
2022-07-29T10:24:15.668Z,28.10
2022-07-29T10:26:46.204Z,28.10
2022-07-29T10:29:15.081Z,28.20
2022-07-29T10:31:52.623Z,28.20
2022-07-29T10:34:33.498Z,28.20
2022-07-29T10:37:11.125Z,28.30
2022-07-29T10:39:55.557Z,28.40
2022-07-29T10:42:33.527Z,28.40
2022-07-29T10:45:05.162Z,28.50
2022-07-29T10:47:35.133Z,28.60
2022-07-29T10:50:07.780Z,28.60
2022-07-29T10:52:55.698Z,28.70
2022-07-29T10:55:36.337Z,28.80
2022-07-29T10:58:17.827Z,29.00
2022-07-29T11:00:47.285Z,29.10
2022-07-29T11:03:50.689Z,29.20
2022-07-29T11:06:26.284Z,29.40
2022-07-29T11:09:20.307Z,29.50
2022-07-29T11:11:53.754Z,29.50
2022-07-29T11:14:58.530Z,29.60
2022-07-29T11:17:26.819Z,29.70
2022-07-29T11:20:33.944Z,29.80
2022-07-29T11:23:18.981Z,29.90
2022-07-29T11:25:50.625Z,30.00
2022-07-29T11:28:25.454Z,30.20
2022-07-29T11:30:55.553Z,30.30
2022-07-29T11:33:54.049Z,30.40
2022-07-29T11:36:19.406Z,30.50
2022-07-29T11:39:36.815Z,30.60
2022-07-29T11:42:41.929Z,30.70
2022-07-29T11:45:46.978Z,30.90
2022-07-29T11:48:29.366Z,31.10
2022-07-29T11:51:00.569Z,31.30
2022-07-29T11:53:32.843Z,31.40
2022-07-29T11:56:03.529Z,31.60
2022-07-29T11:58:33.039Z,31.70
2022-07-29T12:01:04.111Z,31.80
2022-07-29T12:06:23.333Z,32.00
2022-07-29T12:08:51.967Z,32.20
2022-07-29T12:11:23.473Z,32.20
2022-07-29T12:13:52.600Z,32.40
2022-07-29T12:16:27.678Z,32.50
2022-07-29T12:18:59.923Z,32.60
2022-07-29T12:21:28.804Z,32.70
2022-07-29T12:24:04.811Z,32.70
2022-07-29T12:26:51.593Z,32.80
2022-07-29T12:29:20.566Z,32.70
2022-07-29T12:32:05.186Z,32.70
2022-07-29T12:34:34.591Z,32.70
2022-07-29T12:37:03.715Z,32.70
2022-07-29T12:39:32.883Z,32.70
2022-07-29T12:42:04.555Z,32.60
2022-07-29T12:44:46.884Z,32.60
2022-07-29T12:47:15.145Z,32.50
2022-07-29T12:49:44.253Z,32.50
2022-07-29T12:52:32.939Z,32.40
2022-07-29T12:55:02.261Z,32.40
2022-07-29T12:57:32.658Z,32.30
2022-07-29T13:00:11.984Z,32.20
2022-07-29T13:02:41.818Z,32.20
2022-07-29T13:05:11.836Z,32.20
2022-07-29T13:07:55.804Z,32.20
2022-07-29T13:10:26.587Z,32.20
2022-07-29T13:13:10.514Z,32.20
2022-07-29T13:15:39.869Z,32.20
2022-07-29T13:18:28.730Z,32.20
2022-07-29T13:20:57.702Z,32.20
2022-07-29T13:23:25.840Z,32.20
2022-07-29T13:25:54.363Z,32.10
2022-07-29T13:28:25.150Z,32.10
2022-07-29T13:30:53.342Z,32.00
2022-07-29T13:33:21.436Z,32.00
2022-07-29T13:35:50.073Z,31.90
2022-07-29T13:38:18.270Z,31.80
2022-07-29T13:40:46.862Z,31.70
2022-07-29T13:43:15.304Z,31.60
2022-07-29T13:45:45.224Z,31.60
2022-07-29T13:48:13.799Z,31.50
2022-07-29T13:50:41.858Z,31.40
2022-07-29T13:53:10.409Z,31.30
2022-07-29T13:55:46.250Z,31.20
2022-07-29T13:58:16.019Z,31.10
2022-07-29T14:00:45.492Z,31.00
2022-07-29T14:03:14.016Z,30.90
2022-07-29T14:05:42.118Z,30.80
2022-07-29T14:08:10.655Z,30.70
2022-07-29T14:10:39.178Z,30.70
2022-07-29T14:13:07.328Z,30.60
2022-07-29T14:15:55.709Z,30.60
2022-07-29T14:18:24.458Z,30.50
2022-07-29T14:20:52.792Z,30.50
2022-07-29T14:23:21.660Z,30.40
2022-07-29T14:25:50.073Z,30.30
2022-07-29T14:28:18.592Z,30.30
2022-07-29T14:30:47.215Z,30.20
2022-07-29T14:33:17.183Z,30.20
2022-07-29T14:35:46.285Z,30.10
2022-07-29T14:38:14.870Z,30.00
2022-07-29T14:40:43.106Z,30.00
2022-07-29T14:43:11.272Z,29.90
2022-07-29T14:45:39.396Z,29.80
2022-07-29T14:48:07.864Z,29.70
2022-07-29T14:50:37.417Z,29.60
2022-07-29T14:53:06.433Z,29.60
2022-07-29T14:55:34.579Z,29.50
2022-07-29T14:58:09.891Z,29.40
2022-07-29T15:00:40.442Z,29.30
2022-07-29T15:03:11.192Z,29.30
2022-07-29T15:05:40.972Z,29.20
2022-07-29T15:08:10.192Z,29.20
2022-07-29T15:10:38.322Z,29.10
2022-07-29T15:13:06.933Z,29.10
2022-07-29T15:15:35.115Z,29.00
2022-07-29T15:18:03.347Z,29.00
2022-07-29T15:20:31.958Z,28.90
2022-07-29T15:23:01.431Z,28.90
2022-07-29T15:25:30.015Z,28.80
2022-07-29T15:28:01.529Z,28.70
2022-07-29T15:30:33.693Z,28.60
2022-07-29T15:33:03.258Z,28.50
2022-07-29T15:35:31.511Z,28.50
2022-07-29T15:38:01.021Z,28.30
2022-07-29T15:40:29.437Z,28.20
2022-07-29T15:42:58.754Z,28.10
2022-07-29T15:45:26.983Z,27.50
2022-07-29T15:48:01.149Z,27.80
2022-07-29T15:50:29.233Z,27.70
2022-07-29T15:52:57.777Z,27.50
2022-07-29T15:55:27.883Z,27.50
2022-07-29T15:58:00.502Z,27.40
2022-07-29T16:00:28.945Z,27.30
2022-07-29T16:02:57.795Z,27.20
2022-07-29T16:05:26.315Z,27.20
2022-07-29T16:07:54.868Z,27.10
2022-07-29T16:10:23.493Z,27.00
2022-07-29T16:12:53.146Z,26.90
2022-07-29T16:15:21.648Z,26.80
2022-07-29T16:17:50.431Z,26.70
2022-07-29T16:20:19.097Z,26.60
2022-07-29T16:22:47.234Z,26.60
2022-07-29T16:25:15.398Z,26.50
2022-07-29T16:27:43.995Z,26.50
2022-07-29T16:30:13.988Z,27.50
2022-07-29T16:32:42.536Z,25.40
2022-07-29T16:35:11.099Z,26.50
2022-07-29T16:37:39.547Z,26.40
2022-07-29T16:40:11.784Z,26.40
2022-07-29T16:42:47.896Z,26.30
2022-07-29T16:45:18.160Z,26.20
2022-07-29T16:47:49.611Z,26.10
2022-07-29T16:50:18.216Z,26.00
2022-07-29T16:52:46.840Z,25.90
2022-07-29T16:55:15.008Z,25.80
2022-07-29T16:57:43.868Z,25.70
2022-07-29T17:00:13.116Z,25.60
2022-07-29T17:02:43.109Z,25.60
2022-07-29T17:05:12.374Z,25.50
2022-07-29T17:07:41.027Z,25.40
2022-07-29T17:10:10.872Z,25.30
2022-07-29T17:12:40.881Z,25.30
2022-07-29T17:15:12.782Z,25.20
2022-07-29T17:17:55.056Z,25.20
2022-07-29T17:20:26.581Z,25.10
2022-07-29T17:22:55.210Z,25.10
2022-07-29T17:25:24.678Z,25.00
2022-07-29T17:27:57.510Z,25.00
2022-07-29T17:30:28.593Z,25.00
2022-07-29T17:32:58.574Z,24.90
2022-07-29T17:35:44.808Z,24.90
2022-07-29T17:38:12.948Z,24.90
2022-07-29T17:40:41.493Z,24.90
2022-07-29T17:43:10.368Z,24.90
2022-07-29T17:45:50.165Z,24.90
2022-07-29T17:48:20.711Z,24.90
2022-07-29T17:50:49.665Z,24.80
2022-07-29T17:53:18.218Z,24.80
2022-07-29T17:55:49.031Z,24.80
2022-07-29T17:58:17.696Z,24.80
2022-07-29T18:00:45.882Z,24.80
2022-07-29T18:03:14.560Z,24.80
2022-07-29T18:05:44.974Z,24.80
2022-07-29T18:08:13.273Z,24.80
2022-07-29T18:10:41.786Z,24.80
2022-07-29T18:13:10.048Z,24.80
2022-07-29T18:15:38.595Z,24.80
2022-07-29T18:18:07.394Z,24.70
2022-07-29T18:20:35.736Z,24.80
2022-07-29T18:23:05.796Z,24.70
2022-07-29T18:25:34.473Z,24.70
2022-07-29T18:28:03.020Z,24.70
2022-07-29T18:30:33.813Z,24.70
2022-07-29T18:33:20.847Z,24.70
2022-07-29T18:35:51.065Z,24.70
2022-07-29T18:38:21.936Z,24.70
2022-07-29T18:40:50.692Z,24.60
2022-07-29T18:43:18.873Z,24.60
2022-07-29T18:45:48.073Z,24.60
2022-07-29T18:48:16.259Z,24.60
2022-07-29T18:50:44.859Z,24.50
2022-07-29T18:53:13.003Z,24.50
2022-07-29T18:55:42.536Z,24.50
2022-07-29T18:58:10.924Z,24.50
2022-07-29T19:00:39.046Z,24.50
2022-07-29T19:03:07.276Z,24.50
2022-07-29T19:05:36.097Z,24.50
2022-07-29T19:08:04.830Z,24.40
2022-07-29T19:10:33.014Z,24.40
2022-07-29T19:13:02.982Z,24.40
2022-07-29T19:15:31.225Z,24.40
2022-07-29T19:18:01.251Z,24.40
2022-07-29T19:20:29.885Z,24.40
2022-07-29T19:22:58.993Z,24.40
2022-07-29T19:25:27.328Z,24.40
2022-07-29T19:27:55.425Z,24.40
2022-07-29T19:30:24.933Z,24.40
2022-07-29T19:32:53.150Z,24.40
2022-07-29T19:35:31.613Z,24.40
2022-07-29T19:38:03.336Z,24.40
2022-07-29T19:40:31.765Z,24.40
2022-07-29T19:43:00.743Z,24.40
2022-07-29T19:45:30.460Z,24.40
2022-07-29T19:48:01.448Z,24.40
2022-07-29T19:50:30.125Z,24.40
2022-07-29T19:52:58.635Z,24.40
2022-07-29T19:55:27.275Z,24.40
2022-07-29T19:57:56.072Z,24.40
2022-07-29T20:00:25.208Z,24.40
2022-07-29T20:02:57.729Z,24.40
2022-07-29T20:05:28.079Z,24.40
2022-07-29T20:07:57.037Z,24.40
2022-07-29T20:10:25.311Z,24.40
2022-07-29T20:12:55.037Z,24.40
2022-07-29T20:15:24.012Z,24.40
2022-07-29T20:17:56.952Z,24.40
2022-07-29T20:20:27.316Z,24.40
2022-07-29T20:22:55.482Z,24.40
2022-07-29T20:25:24.072Z,24.40
2022-07-29T20:27:53.269Z,24.40
2022-07-29T20:30:22.302Z,24.40
2022-07-29T20:32:50.844Z,24.40
2022-07-29T20:35:19.801Z,24.40
2022-07-29T20:37:55.977Z,24.40
2022-07-29T20:40:25.242Z,24.40
2022-07-29T20:42:53.795Z,24.40
2022-07-29T20:45:21.992Z,24.40
2022-07-29T20:47:52.138Z,24.40
2022-07-29T20:50:23.631Z,24.40
2022-07-29T20:52:54.198Z,24.40
2022-07-29T20:55:22.422Z,24.40
2022-07-29T20:57:50.521Z,24.40
2022-07-29T21:00:19.048Z,24.30
2022-07-29T21:02:47.422Z,24.30
2022-07-29T21:05:15.965Z,24.30
2022-07-29T21:07:44.539Z,24.30
2022-07-29T21:10:15.006Z,24.30
2022-07-29T21:12:43.133Z,24.30
2022-07-29T21:15:13.679Z,24.30
2022-07-29T21:17:46.837Z,24.30
2022-07-29T21:20:16.880Z,24.30
2022-07-29T21:22:45.581Z,24.30
2022-07-29T21:25:15.144Z,24.30
2022-07-29T21:28:03.941Z,24.30
2022-07-29T21:30:32.060Z,24.30
2022-07-29T21:33:00.290Z,24.30
2022-07-29T21:36:03.472Z,24.20
2022-07-29T21:38:18.395Z,24.20
2022-07-29T21:40:48.846Z,24.20
2022-07-29T21:43:17.809Z,24.20
2022-07-29T21:45:48.069Z,24.10
2022-07-29T21:48:16.207Z,24.10
2022-07-29T21:50:44.367Z,24.10
2022-07-29T21:53:13.838Z,24.10
2022-07-29T21:55:44.114Z,24.10
2022-07-29T21:58:15.516Z,24.00
2022-07-29T22:00:44.660Z,24.00
2022-07-29T22:03:13.355Z,24.00
2022-07-29T22:05:41.886Z,24.00
2022-07-29T22:08:10.431Z,24.00
2022-07-29T22:10:38.590Z,23.90
2022-07-29T22:13:07.245Z,23.90
2022-07-29T22:15:37.230Z,23.90
2022-07-29T22:18:06.038Z,23.90
2022-07-29T22:20:34.236Z,23.80
2022-07-29T22:23:06.609Z,23.80
2022-07-29T22:25:34.901Z,23.80
2022-07-29T22:28:03.509Z,23.80
2022-07-29T22:30:32.175Z,23.80
2022-07-29T22:33:01.677Z,23.80
2022-07-29T22:35:29.910Z,23.80
2022-07-29T22:37:58.494Z,23.80
2022-07-29T22:40:30.837Z,23.80
2022-07-29T22:43:01.132Z,23.80
2022-07-29T22:45:29.266Z,23.80
2022-07-29T22:47:59.088Z,23.80
2022-07-29T22:50:28.951Z,23.80
2022-07-29T22:52:57.505Z,23.80
2022-07-29T22:55:26.034Z,23.80
2022-07-29T22:57:54.590Z,23.70
2022-07-29T23:00:22.797Z,23.70
2022-07-29T23:02:51.401Z,23.70
2022-07-29T23:05:19.640Z,23.70
2022-07-29T23:07:49.545Z,23.70
2022-07-29T23:10:17.935Z,23.70
2022-07-29T23:12:46.464Z,23.70
2022-07-29T23:15:14.701Z,23.60
2022-07-29T23:17:43.247Z,23.60
2022-07-29T23:20:11.930Z,23.60
2022-07-29T23:22:43.860Z,23.50
2022-07-29T23:25:13.443Z,23.50
2022-07-29T23:27:42.343Z,23.50
2022-07-29T23:30:12.140Z,23.50
2022-07-29T23:32:40.360Z,23.50
2022-07-29T23:35:10.023Z,23.50
2022-07-29T23:37:39.810Z,23.40
2022-07-29T23:40:14.263Z,23.40
2022-07-29T23:42:44.788Z,23.40
2022-07-29T23:45:14.899Z,23.40
2022-07-29T23:47:43.637Z,23.40
2022-07-29T23:50:13.722Z,23.40
2022-07-29T23:52:42.623Z,23.30
2022-07-29T23:55:36.935Z,23.30
2022-07-29T23:58:02.002Z,23.30
